D/T METAR WX W/DIR W/SPE G/SPE TEMP DEWP
25/02/20 14:50 EGAE 251450Z 24013KT 9999 -SHRA FEW009 SCT012 SCT025 04/03 Q0992 -SHRA WSW (240°) 15.0mph 4°C 3°C
25/02/20 14:20 EGAE 251420Z 25013KT 9999 VCSH FEW009 SCT035 04/02 Q0992 VCSH WSW (250°) 15.0mph 4°C 2°C
25/02/20 13:50 EGAE 251350Z 25016KT 9999 FEW012 SCT028 04/02 Q0992 WSW (250°) 18.4mph 4°C 2°C
25/02/20 13:20 EGAE 251320Z 24017KT 9999 FEW014TCU SCT034 04/03 Q0992 WSW (240°) 19.6mph 4°C 3°C
25/02/20 12:50 EGAE 251250Z 25014G24KT 9999 VCSH FEW014TCU SCT034 05/04 Q0993 VCSH WSW (250°) 16.1mph 27.6mph 5°C 4°C
25/02/20 12:20 EGAE 251220Z 23017KT 9999 -SHRA FEW014TCU BKN021 06/03 Q0992 -SHRA SW (230°) 19.6mph 6°C 3°C
25/02/20 11:50 EGAE 251150Z 23017KT 9999 VCSH FEW014TCU SCT028 06/03 Q0993 VCSH SW (230°) 19.6mph 6°C 3°C
25/02/20 11:20 EGAE 251120Z 23019KT 9999 VCSH FEW014CB SCT032 05/03 Q0993 VCSH SW (230°) 21.9mph 5°C 3°C
25/02/20 10:50 EGAE 251050Z 24016KT 9999 FEW012 SCT036 05/03 Q0993 WSW (240°) 18.4mph 5°C 3°C
25/02/20 10:20 EGAE 251020Z 24016KT 9999 FEW011 SCT026 04/03 Q0993 WSW (240°) 18.4mph 4°C 3°C
25/02/20 09:50 EGAE 250950Z 24017KT 9999 FEW009 SCT028 04/03 Q0994 WSW (240°) 19.6mph 4°C 3°C
25/02/20 09:20 EGAE 250920Z 23011KT 9999 FEW009 SCT028 04/03 Q0994 SW (230°) 12.7mph 4°C 3°C
25/02/20 08:50 EGAE 250850Z 23011KT 9999 FEW009 SCT045 03/02 Q0994 SW (230°) 12.7mph 3°C 2°C
25/02/20 07:50 EGAE 250750Z 23017KT 9999 SHRA FEW013 SCT023 BKN045 03/02 Q0995 SHRA SW (230°) 19.6mph 3°C 2°C
25/02/20 07:20 EGAE 250720Z 24012G26KT 9999 VCSH FEW014 SCT045 03/02 Q0995 VCSH WSW (240°) 13.8mph 29.9mph 3°C 2°C
25/02/20 06:20 EGAE 250620Z 23008KT 9999 FEW030 SCT047 03/02 Q0995 SW (230°) 9.2mph 3°C 2°C
24/02/20 20:50 EGAE 242050Z 25013KT 9999 FEW025 04/02 Q1000 WSW (250°) 15.0mph 4°C 2°C
24/02/20 20:20 EGAE 242020Z 23010KT 9999 SCT018 04/03 Q1001 SW (230°) 11.5mph 4°C 3°C
24/02/20 19:20 EGAE 241920Z 25010KT 7000 +SHRA FEW008 BKN015 04/03 Q1001 +SHRA WSW (250°) 11.5mph 4°C 3°C
24/02/20 18:50 EGAE 241850Z 27014KT 9999 FEW006 SCT015 05/04 Q1001 W (270°) 16.1mph 5°C 4°C
24/02/20 18:20 EGAE 241820Z 27016KT 9999 -SHRA FEW010 FEW015CB SCT020 05/04 Q1001 -SHRA W (270°) 18.4mph 5°C 4°C
24/02/20 17:50 EGAE 241750Z 28014KT 9999 VCSH FEW010 SCT017 05/04 Q1001 RESHRA VCSH W (280°) 16.1mph 5°C 4°C
24/02/20 17:20 EGAE 241720Z 28014G24KT 9999 -SHRA FEW010 BKN018 06/05 Q1000 -SHRA W (280°) 16.1mph 27.6mph 6°C 5°C
24/02/20 16:50 EGAE 241650Z 29012KT 9999 VCSH FEW009 BKN015 07/05 Q1000 VCSH WNW (290°) 13.8mph 7°C 5°C
24/02/20 16:20 EGAE 241620Z 29015KT 9999 -SHRA FEW013 BKN022 07/05 Q1000 -SHRA WNW (290°) 17.3mph 7°C 5°C
24/02/20 15:20 EGAE 241520Z 29014KT 9999 VCSH FEW013 SCT020 06/04 Q0999 VCSH WNW (290°) 16.1mph 6°C 4°C
24/02/20 14:50 EGAE 241450Z 28017KT 9999 VCSH FEW013 SCT020 07/05 Q0999 VCSH W (280°) 19.6mph 7°C 5°C
24/02/20 14:20 EGAE 241420Z 29016KT 9999 -SHRA FEW009 BKN013 06/05 Q0999 -SHRA WNW (290°) 18.4mph 6°C 5°C
24/02/20 13:50 EGAE 241350Z 27015KT 9999 -SHRA FEW009 BKN011 05/04 Q0998 -SHRA W (270°) 17.3mph 5°C 4°C
24/02/20 13:20 EGAE 241320Z 28018KT 9999 FEW006 BKN009 05/05 Q0997 W (280°) 20.7mph 5°C 5°C
24/02/20 12:50 EGAE 241250Z 26020KT 9999 VCSH SCT006 BKN012 06/05 Q0996 VCSH W (260°) 23.0mph 6°C 5°C
24/02/20 12:20 EGAE 241220Z 25014KT 9999 FEW005 BKN007 05/05 Q0996 WSW (250°) 16.1mph 5°C 5°C
24/02/20 11:50 EGAE 241150Z 25015KT 8000 FEW002 SCT003 OVC005 04/04 Q0996 WSW (250°) 17.3mph 4°C 4°C
24/02/20 11:20 EGAE 241120Z 26011KT 6000 -DZ FEW002 SCT003 BKN005 04/04 Q0995 -DZ W (260°) 12.7mph 4°C 4°C
24/02/20 10:50 EGAE 241050Z 27007KT 2000 -DZ FEW002 OVC003 04/04 Q0995 -DZ W (270°) 8.1mph 4°C 4°C
24/02/20 10:20 EGAE 241020Z 27005KT 2500 -DZ FEW002 OVC003 04/04 Q0995 -DZ W (270°) 5.8mph 4°C 4°C
24/02/20 09:50 EGAE 240950Z VRB03KT 3000 -DZ FEW004 OVC007 03/03 Q0994 -DZ N (0°) 3.5mph 3°C 3°C
24/02/20 09:20 EGAE 240920Z 07008KT 3500 -RADZ SCT005 OVC008 03/03 Q0994 -RA -DZ ENE (70°) 9.2mph 3°C 3°C
24/02/20 08:50 EGAE 240850Z 07008KT 4000 -RADZ SCT008 OVC016 03/03 Q0995 -RA -DZ ENE (70°) 9.2mph 3°C 3°C
24/02/20 07:20 EGAE 240720Z 06010KT 8000 -RASN FEW014 OVC029 02/02 Q0996 -RA -SN ENE (60°) 11.5mph 2°C 2°C
24/02/20 06:50 EGAE 240650Z 07011KT 8000 RASN FEW014 OVC031 02/02 Q0997 RA SN ENE (70°) 12.7mph 2°C 2°C
24/02/20 06:20 EGAE 240620Z 08016KT 8000 RASN FEW008 SCT014 OVC035 02/01 Q0998 RA SN E (80°) 18.4mph 2°C 1°C
24/02/20 05:50 EGAE 240550Z 10018KT 8000 RASN FEW008 SCT014 OVC035 02/02 Q0999 RA SN E (100°) 20.7mph 2°C 2°C
23/02/20 21:20 EGAE 232120Z 22007KT 9999 FEW025 05/01 Q1017 SW (220°) 8.1mph 5°C 1°C
23/02/20 20:50 EGAE 232050Z 22008KT 9999 FEW025 06/02 Q1018 SW (220°) 9.2mph 6°C 2°C
23/02/20 20:20 EGAE 232020Z 22006KT 9999 FEW042 05/02 Q1018 SW (220°) 6.9mph 5°C 2°C
23/02/20 19:50 EGAE 231950Z 24009KT 9999 FEW042 06/02 Q1018 WSW (240°) 10.4mph 6°C 2°C
23/02/20 19:20 EGAE 231920Z 23009KT 9999 FEW042 06/02 Q1018 SW (230°) 10.4mph 6°C 2°C